createdAt,value
2023-04-02T18:43:55.321Z,45.30
2023-04-02T18:49:01.371Z,45.00
2023-04-02T18:51:32.523Z,45.84
2023-04-02T18:54:11.808Z,46.46
2023-04-02T18:56:40.057Z,46.86
2023-04-02T18:59:16.513Z,47.02
2023-04-02T19:01:47.060Z,47.16
2023-04-02T19:04:31.417Z,47.53
2023-04-02T19:07:14.250Z,47.68
2023-04-02T19:09:44.358Z,47.81
2023-04-02T19:12:22.379Z,47.81
2023-04-02T19:14:51.940Z,47.92
2023-04-02T19:17:48.615Z,48.01
2023-04-02T19:20:16.699Z,48.01
2023-04-02T19:22:52.835Z,48.14
2023-04-02T19:25:44.858Z,47.93
2023-04-02T19:28:34.034Z,48.12
2023-04-02T19:31:20.554Z,47.96
2023-04-02T19:33:50.156Z,47.98
2023-04-02T19:36:47.000Z,47.87
2023-04-02T19:39:36.893Z,47.86
2023-04-02T19:42:17.140Z,47.83
2023-04-02T19:44:48.491Z,47.75
2023-04-02T19:47:16.867Z,47.60
2023-04-02T19:49:45.454Z,47.62
2023-04-02T19:52:13.641Z,47.56
2023-04-02T19:54:41.694Z,47.52
2023-04-02T19:57:13.570Z,47.49
2023-04-02T19:59:41.648Z,47.37
2023-04-02T20:02:11.035Z,47.24
2023-04-02T20:04:39.218Z,47.24
2023-04-02T20:07:07.378Z,47.13
2023-04-02T20:09:35.556Z,47.08
2023-04-02T20:12:04.042Z,47.00
2023-04-02T20:14:32.104Z,46.90
2023-04-02T20:17:00.165Z,46.81
2023-04-02T20:19:28.715Z,46.75
2023-04-02T20:21:56.830Z,46.67
2023-04-02T20:24:24.910Z,46.68
2023-04-02T20:26:52.885Z,46.58
2023-04-02T20:29:22.963Z,46.47
2023-04-02T20:31:51.271Z,46.49
2023-04-02T20:34:19.328Z,46.49
2023-04-02T20:36:47.835Z,46.43
2023-04-02T20:39:19.416Z,46.24
2023-04-02T20:41:47.653Z,46.25
2023-04-02T20:44:16.040Z,46.25
2023-04-02T20:46:44.123Z,46.10
2023-04-02T20:49:12.387Z,46.08
2023-04-02T20:51:40.464Z,46.04
2023-04-02T20:54:08.530Z,45.99
2023-04-02T20:56:36.597Z,45.91
2023-04-02T20:59:04.877Z,45.99
2023-04-02T21:01:32.974Z,45.77
2023-04-02T21:04:02.368Z,45.75
2023-04-02T21:06:35.430Z,45.72
2023-04-02T21:09:05.763Z,45.76
2023-04-02T21:11:36.068Z,45.74
2023-04-02T21:14:04.584Z,45.61
2023-04-02T21:16:32.810Z,45.54
2023-04-02T21:19:06.050Z,45.60
2023-04-02T21:21:34.934Z,45.53
2023-04-02T21:24:04.850Z,45.51
2023-04-02T21:26:35.172Z,45.40
2023-04-02T21:29:03.589Z,45.34
2023-04-02T21:31:35.260Z,45.37
2023-04-02T21:34:03.740Z,45.33
2023-04-02T21:36:33.534Z,45.26
2023-04-02T21:39:06.601Z,45.27
2023-04-02T21:41:36.622Z,45.28
2023-04-02T21:44:05.578Z,45.16
2023-04-02T21:46:36.253Z,45.17
2023-04-02T21:49:04.449Z,45.17
2023-04-02T21:51:33.330Z,45.02
2023-04-02T21:54:01.675Z,45.03
2023-04-02T21:56:31.484Z,45.03
2023-04-02T21:59:02.205Z,44.91
2023-04-02T22:01:32.533Z,44.98
2023-04-02T22:04:02.110Z,44.92
2023-04-02T22:06:31.881Z,44.76
2023-04-02T22:09:01.739Z,44.91
2023-04-02T22:11:34.683Z,44.79
2023-04-02T22:14:06.114Z,44.80
2023-04-02T22:16:35.064Z,44.83
2023-04-02T22:19:04.687Z,44.65
2023-04-02T22:21:32.811Z,44.61
2023-04-02T22:24:01.991Z,44.61
2023-04-02T22:26:30.489Z,44.63
2023-04-02T22:28:59.063Z,44.60
2023-04-02T22:31:28.858Z,44.53
2023-04-02T22:33:57.384Z,44.52
2023-04-02T22:36:26.335Z,44.47
2023-04-02T22:38:54.297Z,44.51
2023-04-02T22:41:25.774Z,44.38
2023-04-02T22:43:54.851Z,44.38
2023-04-02T22:46:23.234Z,44.43
2023-04-02T22:48:51.406Z,44.44
2023-04-02T22:51:21.018Z,44.32
2023-04-02T22:53:49.657Z,44.34
2023-04-02T22:56:23.048Z,44.28
2023-04-02T22:58:51.227Z,44.25
2023-04-02T23:01:22.135Z,44.21
2023-04-02T23:03:50.291Z,44.29
2023-04-02T23:06:18.433Z,44.27
2023-04-02T23:08:46.837Z,44.26
2023-04-02T23:11:16.845Z,44.15
2023-04-02T23:13:45.030Z,44.04
2023-04-02T23:16:13.409Z,44.08
2023-04-02T23:18:42.514Z,44.15
2023-04-02T23:21:10.575Z,44.07
2023-04-02T23:23:38.558Z,44.06
2023-04-02T23:26:06.509Z,44.10
2023-04-02T23:28:35.498Z,44.05
2023-04-02T23:31:04.805Z,43.96
2023-04-02T23:33:32.826Z,44.04
2023-04-02T23:36:00.957Z,44.00
2023-04-02T23:38:29.035Z,43.95
2023-04-02T23:40:57.187Z,43.98
2023-04-02T23:43:25.476Z,44.01
2023-04-02T23:45:53.396Z,43.86
2023-04-02T23:48:21.340Z,43.92
2023-04-02T23:50:49.490Z,43.98
2023-04-02T23:53:18.831Z,43.89
2023-04-02T23:55:46.967Z,43.91
2023-04-02T23:58:15.129Z,43.81
